Time;durP1;ratioP1;P1;durP2;ratioP2;P2;SDS_P1;SDS_P2;PMS_P1;PMS_P2;Temp;Humidity;BMP_temperature;BMP_pressure;BME280_temperature;BME280_humidity;BME280_pressure;Samples;Min_cycle;Max_cycle;Signal;HPM_P1;HPM_P2
2022/12/10 00:02:25;;;;;;;18.10;16.50;;;;;;;1.97;100.00;94321.19;5091926;28;20409;-63
2022/12/10 00:04:50;;;;;;;35.00;30.60;;;;;;;1.98;100.00;94310.69;5090709;28;20032;-63
2022/12/10 00:07:15;;;;;;;23.27;20.88;;;;;;;1.95;100.00;94313.53;5071446;28;20500;-64
2022/12/10 00:09:41;;;;;;;20.92;18.17;;;;;;;1.93;100.00;94304.22;5071346;28;20486;-63
2022/12/10 00:12:06;;;;;;;19.27;17.67;;;;;;;1.92;100.00;94320.72;5071582;28;20561;-63
2022/12/10 00:14:31;;;;;;;20.55;18.65;;;;;;;1.92;100.00;94323.31;5080593;28;20032;-63
2022/12/10 00:16:57;;;;;;;23.13;20.92;;;;;;;1.94;100.00;94326.63;5087788;28;20471;-63
2022/12/10 00:19:22;;;;;;;24.77;22.42;;;;;;;1.96;100.00;94315.19;5071040;28;20556;-63
2022/12/10 00:21:47;;;;;;;24.10;21.58;;;;;;;1.97;100.00;94316.81;5084005;28;20489;-64
2022/12/10 00:24:13;;;;;;;22.80;20.63;;;;;;;1.98;100.00;94315.03;5080260;28;20082;-63
2022/12/10 00:26:39;;;;;;;20.38;18.58;;;;;;;1.98;100.00;94313.28;5091070;28;20099;-63
2022/12/10 00:29:07;;;;;;;18.40;16.73;;;;;;;1.97;100.00;94318.56;5100049;28;20015;-63
2022/12/10 00:31:35;;;;;;;20.13;18.42;;;;;;;1.99;100.00;94320.13;5093337;28;20030;-63
2022/12/10 00:34:04;;;;;;;18.67;17.15;;;;;;;2.00;100.00;94315.75;5090629;28;20024;-69
2022/12/10 00:36:32;;;;;;;24.80;22.42;;;;;;;1.97;100.00;94327.22;5090634;28;20081;-63
2022/12/10 00:38:58;;;;;;;24.55;22.38;;;;;;;1.95;100.00;94329.09;5089263;28;20027;-64
2022/12/10 00:41:24;;;;;;;25.23;22.88;;;;;;;1.94;100.00;94324.03;5090267;28;20113;-64
2022/12/10 00:43:49;;;;;;;23.98;21.63;;;;;;;1.94;100.00;94332.66;5085198;28;20632;-63
2022/12/10 00:46:16;;;;;;;23.88;21.75;;;;;;;1.91;100.00;94326.88;5090121;28;20054;-63
2022/12/10 00:48:43;;;;;;;21.42;19.60;;;;;;;1.93;100.00;94333.59;5089568;28;20020;-64
2022/12/10 00:51:13;;;;;;;21.75;19.95;;;;;;;1.95;100.00;94331.69;5090558;28;20024;-68
2022/12/10 00:53:41;;;;;;;21.90;20.08;;;;;;;1.97;100.00;94322.00;5077366;28;20062;-63
2022/12/10 00:56:09;;;;;;;20.35;18.65;;;;;;;2.02;100.00;94320.81;5098041;28;20488;-74
2022/12/10 00:58:35;;;;;;;41.47;32.83;;;;;;;2.03;100.00;94325.06;5087981;28;20028;-74
2022/12/10 01:01:16;;;;;;;134.23;76.20;;;;;;;2.04;100.00;94318.91;5089600;28;20081;-74
2022/12/10 01:03:42;;;;;;;21.80;19.52;;;;;;;2.03;100.00;94327.66;5090148;28;20059;-74
2022/12/10 01:06:10;;;;;;;16.30;14.80;;;;;;;1.99;100.00;94320.13;5077129;28;20020;-74
2022/12/10 01:08:36;;;;;;;14.93;13.73;;;;;;;2.00;100.00;94326.16;5089627;28;20124;-74
2022/12/10 01:11:02;;;;;;;12.38;11.38;;;;;;;2.02;100.00;94328.59;5088666;28;20468;-63
2022/12/10 01:13:27;;;;;;;12.68;11.68;;;;;;;2.00;100.00;94332.16;5088910;28;20454;-68
2022/12/10 01:15:52;;;;;;;12.75;11.70;;;;;;;2.00;100.00;94319.16;5089946;28;20094;-74
2022/12/10 01:18:18;;;;;;;13.60;12.40;;;;;;;2.00;100.00;94323.56;5093693;28;20024;-74
2022/12/10 01:20:43;;;;;;;12.32;11.43;;;;;;;1.97;100.00;94324.59;5089899;28;20027;-74
2022/12/10 01:23:08;;;;;;;12.38;11.38;;;;;;;1.97;100.00;94313.38;5088952;28;20030;-73
2022/12/10 01:25:34;;;;;;;12.80;11.80;;;;;;;1.96;100.00;94317.78;5095654;28;20031;-73
2022/12/10 01:27:59;;;;;;;30.58;25.13;;;;;;;2.00;100.00;94318.34;5107083;28;20038;-73
2022/12/10 01:30:24;;;;;;;49.47;36.03;;;;;;;2.02;100.00;94318.22;5073930;28;20079;-68
2022/12/10 01:32:49;;;;;;;53.25;38.53;;;;;;;2.00;100.00;94326.97;5077858;28;20602;-64
2022/12/10 01:35:15;;;;;;;35.78;28.80;;;;;;;2.00;100.00;94331.34;5089974;28;20470;-68
2022/12/10 01:37:40;;;;;;;18.80;16.90;;;;;;;1.99;100.00;94330.50;5052359;28;20052;-69
2022/12/10 01:40:06;;;;;;;15.10;13.88;;;;;;;1.99;100.00;94327.91;5069790;28;20060;-68
2022/12/10 01:42:32;;;;;;;21.13;18.42;;;;;;;1.99;100.00;94330.50;5079507;28;20019;-69
2022/12/10 01:45:00;;;;;;;51.40;36.28;;;;;;;2.00;100.00;94321.75;5097744;28;20517;-68
2022/12/10 01:47:26;;;;;;;27.77;22.45;;;;;;;2.06;100.00;94323.06;5088962;28;20085;-67
2022/12/10 01:49:51;;;;;;;20.77;18.58;;;;;;;2.08;100.00;94326.34;5089672;28;20099;-60
2022/12/10 01:52:17;;;;;;;24.73;21.70;;;;;;;2.06;100.00;94319.63;5078729;28;20032;-60
2022/12/10 01:54:45;;;;;;;28.92;23.25;;;;;;;2.05;100.00;94323.16;5076154;28;20036;-74
2022/12/10 01:57:14;;;;;;;40.08;32.28;;;;;;;2.02;100.00;94326.00;5082277;28;20048;-74
2022/12/10 01:59:41;;;;;;;18.35;16.63;;;;;;;2.03;100.00;94328.50;5079319;28;20081;-73
2022/12/10 02:02:28;;;;;;;17.35;15.75;;;;;;;1.99;100.00;94330.50;5085953;28;20055;-73
2022/12/10 02:05:15;;;;;;;14.13;13.02;;;;;;;1.96;100.00;94329.91;5080868;28;20025;-73
2022/12/10 02:07:52;;;;;;;13.27;12.27;;;;;;;1.99;100.00;94327.91;5080462;28;20039;-73
2022/12/10 02:10:23;;;;;;;11.48;10.55;;;;;;;1.98;100.00;94331.44;5081779;28;20030;-61
2022/12/10 02:12:55;;;;;;;13.05;11.98;;;;;;;1.95;100.00;94334.28;5074741;28;20086;-74
2022/12/10 02:15:26;;;;;;;12.43;11.43;;;;;;;1.96;100.00;94337.69;5078229;28;20020;-74
2022/12/10 02:17:55;;;;;;;12.80;11.80;;;;;;;2.02;100.00;94333.78;5078567;28;20082;-74
2022/12/10 02:20:36;;;;;;;12.93;11.82;;;;;;;2.00;100.00;94333.94;5076923;28;20110;-74
2022/12/10 02:23:07;;;;;;;13.27;11.93;;;;;;;1.94;100.00;94332.66;5080587;28;20020;-74
2022/12/10 02:25:51;;;;;;;12.93;11.82;;;;;;;1.93;100.00;94330.16;5073218;28;20025;-74
2022/12/10 02:28:31;;;;;;;12.65;11.55;;;;;;;2.09;100.00;94334.94;5079313;28;20032;-61
2022/12/10 02:30:58;;;;;;;13.00;12.00;;;;;;;2.06;100.00;94335.19;5076754;28;20078;-63
2022/12/10 02:33:25;;;;;;;12.60;11.60;;;;;;;2.04;100.00;94337.94;5083846;28;20101;-63
2022/12/10 02:35:53;;;;;;;12.07;11.07;;;;;;;1.92;100.00;94344.94;5091411;28;20009;-63
2022/12/10 02:38:29;;;;;;;11.13;10.23;;;;;;;1.85;100.00;94346.34;5080259;28;20566;-63
2022/12/10 02:41:00;;;;;;;12.20;11.20;;;;;;;1.82;100.00;94344.00;5083812;28;20512;-63
2022/12/10 02:43:29;;;;;;;13.30;12.10;;;;;;;1.81;100.00;94343.19;5074636;28;20025;-64
2022/12/10 02:45:56;;;;;;;11.93;10.93;;;;;;;1.90;100.00;94336.44;5081564;28;20025;-64
2022/12/10 02:48:23;;;;;;;11.38;10.40;;;;;;;1.97;100.00;94341.94;5079350;28;20523;-61
2022/12/10 02:50:48;;;;;;;10.90;10.10;;;;;;;2.08;100.00;94328.94;5076012;28;20467;-63
2022/12/10 02:53:13;;;;;;;10.82;10.02;;;;;;;1.92;100.00;94326.75;5083806;28;20106;-61
2022/12/10 02:56:11;;;;;;;10.43;9.52;;;;;;;1.93;100.00;94328.41;5085076;28;20477;-61
2022/12/10 02:59:19;;;;;;;10.95;10.15;;;;;;;1.85;100.00;94320.38;5087843;28;20178;-61
2022/12/10 03:02:11;;;;;;;10.85;10.05;;;;;;;1.92;100.00;94326.75;5079184;28;20079;-61
2022/12/10 03:04:52;;;;;;;10.80;9.80;;;;;;;1.83;100.00;94315.34;5065045;28;20099;-61
2022/12/10 03:07:40;;;;;;;10.32;9.57;;;;;;;1.90;100.00;94323.47;5081314;28;20025;-73
2022/12/10 03:10:20;;;;;;;9.85;9.15;;;;;;;1.88;100.00;94324.53;5084065;28;20547;-63
2022/12/10 03:12:54;;;;;;;10.70;9.95;;;;;;;1.80;100.00;94320.78;5084098;28;20022;-73
2022/12/10 03:15:22;;;;;;;10.75;9.77;;;;;;;1.88;100.00;94322.75;5094802;28;20077;-73
2022/12/10 03:17:48;;;;;;;9.80;9.02;;;;;;;1.80;100.00;94315.59;5081888;28;20047;-73
2022/12/10 03:20:16;;;;;;;10.82;10.02;;;;;;;1.76;100.00;94308.97;5084007;28;20105;-73
2022/12/10 03:22:46;;;;;;;11.75;10.85;;;;;;;1.82;100.00;94307.66;5075207;28;20023;-73
2022/12/10 03:25:16;;;;;;;11.55;10.65;;;;;;;1.80;100.00;94315.59;5081769;28;20028;-73
2022/12/10 03:27:44;;;;;;;12.23;11.27;;;;;;;1.84;100.00;94322.19;5085210;28;20016;-69
2022/12/10 03:30:10;;;;;;;11.30;10.40;;;;;;;1.88;100.00;94322.75;5077658;28;20029;-63
2022/12/10 03:32:36;;;;;;;10.13;9.32;;;;;;;1.84;100.00;94322.19;5087510;28;20016;-63
2022/12/10 03:35:04;;;;;;;10.10;9.30;;;;;;;1.84;100.00;94324.78;5082889;28;20028;-63
2022/12/10 03:37:29;;;;;;;11.63;10.73;;;;;;;1.78;100.00;94314.03;5085241;28;20090;-63
2022/12/10 03:39:58;;;;;;;9.77;9.07;;;;;;;1.75;100.00;94309.91;5089244;28;20028;-63
2022/12/10 03:42:23;;;;;;;9.70;9.05;;;;;;;1.71;100.00;94311.09;5083768;28;20086;-63
2022/12/10 03:44:51;;;;;;;10.45;9.55;;;;;;;1.97;100.00;94313.38;5079482;28;20028;-63
2022/12/10 03:47:16;;;;;;;10.25;9.55;;;;;;;1.78;100.00;94316.63;5085019;28;20584;-62
2022/12/10 03:49:43;;;;;;;10.45;9.65;;;;;;;1.71;100.00;94316.28;5082716;28;20093;-63
2022/12/10 03:52:09;;;;;;;9.73;8.95;;;;;;;1.66;100.00;94324.47;5081806;28;20493;-63
2022/12/10 03:54:34;;;;;;;8.98;8.38;;;;;;;1.67;100.00;94323.53;5075293;28;20394;-63
2022/12/10 03:56:59;;;;;;;8.73;8.13;;;;;;;1.66;100.00;94327.06;5084923;28;20012;-63
2022/12/10 03:59:25;;;;;;;7.65;7.15;;;;;;;1.62;100.00;94322.22;5083044;28;20135;-63
2022/12/10 04:01:50;;;;;;;8.45;7.85;;;;;;;1.61;100.00;94315.38;5083470;28;20020;-63
2022/12/10 04:04:16;;;;;;;7.10;6.63;;;;;;;1.61;100.00;94320.56;5080931;28;20017;-63
2022/12/10 04:06:42;;;;;;;7.32;6.80;;;;;;;1.66;100.00;94313.25;5081507;28;20051;-60
2022/12/10 04:09:10;;;;;;;6.88;6.47;;;;;;;1.66;100.00;94316.69;5082862;28;20062;-61
2022/12/10 04:11:36;;;;;;;6.57;6.18;;;;;;;1.74;100.00;94325.63;5083027;28;20077;-61
2022/12/10 04:16:46;;;;;;;7.10;6.60;;;;;;;1.67;100.00;94338.25;5083747;28;20101;-61
2022/12/10 04:19:14;;;;;;;7.78;7.18;;;;;;;1.69;100.00;94333.75;5081550;28;20509;-62
2022/12/10 04:27:14;;;;;;;7.70;7.10;;;;;;;1.55;100.00;94347.81;5079831;28;20031;-63
2022/12/10 04:29:39;;;;;;;7.95;7.35;;;;;;;1.50;100.00;94344.78;5076100;28;20143;-69
2022/12/10 04:32:05;;;;;;;8.35;7.65;;;;;;;1.48;100.00;94355.25;5079568;28;20095;-69
2022/12/10 04:34:30;;;;;;;8.65;7.97;;;;;;;1.51;100.00;94356.78;5083864;28;20024;-68
2022/12/10 04:36:57;;;;;;;7.65;7.15;;;;;;;1.48;100.00;94352.66;5089839;28;20043;-68
2022/12/10 04:39:23;;;;;;;7.65;7.15;;;;;;;1.57;100.00;94361.50;5083516;28;20229;-68
2022/12/10 04:41:49;;;;;;;7.30;6.80;;;;;;;1.57;100.00;94361.50;5074292;28;20028;-69
2022/12/10 04:44:16;;;;;;;6.70;6.18;;;;;;;1.66;100.00;94367.75;5082354;28;20031;-63
2022/12/10 04:46:41;;;;;;;7.15;6.65;;;;;;;1.64;100.00;94359.25;5076903;28;20035;-63
2022/12/10 04:49:07;;;;;;;7.53;7.00;;;;;;;1.67;100.00;94372.81;5073722;28;20131;-69
2022/12/10 04:51:32;;;;;;;6.30;5.90;;;;;;;1.60;100.00;94368.22;5081303;28;20032;-69
2022/12/10 04:53:58;;;;;;;6.70;6.20;;;;;;;1.58;100.00;94370.94;5080993;28;20024;-69
2022/12/10 04:56:24;;;;;;;6.90;6.43;;;;;;;1.56;100.00;94378.00;5077067;28;20442;-69
2022/12/10 04:58:49;;;;;;;7.38;6.88;;;;;;;1.54;100.00;94380.69;5073213;28;20108;-68
2022/12/10 05:01:15;;;;;;;7.38;6.78;;;;;;;1.52;100.00;94379.19;5078451;28;20504;-68
2022/12/10 05:03:41;;;;;;;6.95;6.45;;;;;;;1.48;100.00;94386.38;5087523;28;20103;-61
2022/12/10 05:06:10;;;;;;;7.05;6.55;;;;;;;1.43;100.00;94388.50;5076737;28;20012;-61
2022/12/10 05:08:37;;;;;;;6.70;6.10;;;;;;;1.40;100.00;94394.75;5081697;28;20028;-73
2022/12/10 05:11:05;;;;;;;7.45;6.85;;;;;;;1.36;100.00;94395.94;5077663;28;20027;-73
2022/12/10 05:13:30;;;;;;;6.57;6.07;;;;;;;1.36;100.00;94390.75;5086218;28;20561;-73
2022/12/10 05:15:57;;;;;;;4.90;4.60;;;;;;;1.40;100.00;94388.75;5082443;28;20024;-73
2022/12/10 05:18:23;;;;;;;4.88;4.57;;;;;;;1.34;100.00;94397.81;5087324;28;20028;-73
2022/12/10 05:20:48;;;;;;;5.07;4.78;;;;;;;1.39;100.00;94405.25;5062172;28;20505;-73
2022/12/10 05:23:28;;;;;;;4.60;4.30;;;;;;;1.56;100.00;94397.00;5083981;28;20024;-61
2022/12/10 05:26:02;;;;;;;5.40;4.93;;;;;;;1.49;100.00;94413.97;5087846;28;20074;-69
2022/12/10 05:28:30;;;;;;;5.55;5.15;;;;;;;1.57;100.00;94414.22;5086566;28;20528;-68
2022/12/10 05:30:56;;;;;;;6.80;6.30;;;;;;;1.60;100.00;94407.94;5080754;28;20089;-69
2022/12/10 05:33:22;;;;;;;5.35;4.97;;;;;;;1.58;100.00;94407.25;5075357;28;20028;-68
2022/12/10 05:35:57;;;;;;;6.43;5.95;;;;;;;1.49;100.00;94405.38;5077574;28;20028;-69
2022/12/10 05:38:23;;;;;;;;;;;;;;;1.38;100.00;94407.00;5079668;28;20055;-68
2022/12/10 05:40:49;;;;;;;;;;;;;;;1.31;100.00;94411.03;5080023;28;19908;-69
2022/12/10 05:43:14;;;;;;;5.43;5.13;;;;;;;1.27;100.00;94417.38;5075998;28;19908;-63
2022/12/10 05:45:39;;;;;;;4.53;4.22;;;;;;;1.27;100.00;94415.59;5086115;28;20030;-62
2022/12/10 05:48:06;;;;;;;5.20;4.80;;;;;;;1.25;100.00;94417.50;5076431;28;20411;-62
2022/12/10 05:50:32;;;;;;;4.82;4.53;;;;;;;1.28;100.00;94425.03;5079332;28;20689;-62
2022/12/10 05:52:57;;;;;;;4.55;4.30;;;;;;;1.38;100.00;94427.75;5083842;28;20103;-62
2022/12/10 05:55:24;;;;;;;6.80;4.70;;;;;;;1.30;100.00;94432.72;5095743;28;20046;-61
2022/12/10 05:57:50;;;;;;;5.18;4.88;;;;;;;1.25;100.00;94425.28;5084943;28;20490;-62
2022/12/10 06:00:15;;;;;;;5.88;5.38;;;;;;;1.35;100.00;94434.97;5087198;28;20023;-62
2022/12/10 06:02:41;;;;;;;5.78;5.38;;;;;;;1.25;100.00;94440.03;5087630;28;20111;-74
2022/12/10 06:05:06;;;;;;;5.32;4.93;;;;;;;1.18;100.00;94441.41;5082733;28;20486;-74
2022/12/10 06:07:32;;;;;;;5.95;5.45;;;;;;;1.18;100.00;94437.06;5082171;28;20111;-73
2022/12/10 06:09:57;;;;;;;5.53;5.22;;;;;;;1.19;100.00;94435.28;5080415;28;20379;-74
2022/12/10 06:12:23;;;;;;;4.70;4.40;;;;;;;1.17;100.00;94450.97;5078209;28;20465;-73
2022/12/10 06:14:48;;;;;;;4.93;4.63;;;;;;;1.17;100.00;94443.19;5077724;28;20496;-73
2022/12/10 06:17:13;;;;;;;4.63;4.32;;;;;;;1.19;100.00;94445.66;5088101;28;20055;-73
2022/12/10 06:19:39;;;;;;;4.78;4.47;;;;;;;1.21;100.00;94446.34;5092112;28;20036;-73
2022/12/10 06:22:04;;;;;;;4.57;4.28;;;;;;;1.20;100.00;94437.75;5073815;28;20025;-64
2022/12/10 06:24:29;;;;;;;4.70;4.40;;;;;;;1.18;100.00;94442.25;5086578;28;20582;-63
2022/12/10 06:26:55;;;;;;;4.80;4.50;;;;;;;1.09;100.00;94443.75;5086204;28;20502;-63
2022/12/10 06:29:20;;;;;;;4.70;4.38;;;;;;;1.03;100.00;94446.81;5080134;28;20550;-62
2022/12/10 06:31:45;;;;;;;5.25;4.90;;;;;;;1.13;100.00;94454.72;5097539;28;20080;-63
2022/12/10 06:34:11;;;;;;;5.28;4.90;;;;;;;1.08;100.00;94455.06;5079543;28;20026;-63
2022/12/10 06:36:37;;;;;;;5.25;4.85;;;;;;;1.02;100.00;94458.13;5090618;28;20829;-63
2022/12/10 06:39:02;;;;;;;6.10;5.45;;;;;;;1.02;100.00;94465.91;5077909;28;20107;-63
2022/12/10 06:41:28;;;;;;;5.72;5.32;;;;;;;0.97;100.00;94463.63;5083430;28;20035;-61
2022/12/10 06:43:53;;;;;;;6.00;5.60;;;;;;;0.95;100.00;94465.53;5095474;28;20074;-63
2022/12/10 06:46:20;;;;;;;5.90;5.40;;;;;;;0.92;100.00;94467.50;5088090;28;20554;-63
2022/12/10 06:48:46;;;;;;;6.80;6.30;;;;;;;0.92;100.00;94470.94;5089467;28;20103;-63
2022/12/10 06:51:12;;;;;;;9.93;9.23;;;;;;;0.90;100.00;94478.00;5077189;28;20456;-63
2022/12/10 06:53:39;;;;;;;8.40;7.70;;;;;;;0.88;100.00;94484.22;5085619;28;20413;-63
2022/12/10 06:56:06;;;;;;;8.15;7.55;;;;;;;0.88;100.00;94481.63;5083254;28;20028;-63
2022/12/10 06:58:33;;;;;;;7.53;7.03;;;;;;;0.83;100.00;94480.22;5083054;28;20114;-73
2022/12/10 07:01:07;;;;;;;7.15;6.55;;;;;;;0.84;100.00;94479.25;5082389;28;20669;-64
2022/12/10 07:03:32;;;;;;;6.63;6.03;;;;;;;0.91;100.00;94489.16;5083548;28;20035;-60
2022/12/10 07:06:02;;;;;;;6.60;6.10;;;;;;;0.86;100.00;94476.53;5088648;28;20019;-60
2022/12/10 07:08:27;;;;;;;6.07;5.57;;;;;;;0.98;100.00;94485.19;5094203;28;20106;-60
2022/12/10 07:10:53;;;;;;;6.65;6.15;;;;;;;0.91;100.00;94487.41;5090010;28;20116;-60
2022/12/10 07:13:18;;;;;;;7.22;6.72;;;;;;;0.90;100.00;94492.72;5078330;28;20017;-60
2022/12/10 07:15:43;;;;;;;6.85;6.35;;;;;;;0.90;100.00;94490.97;5087709;28;20504;-60
2022/12/10 07:18:09;;;;;;;6.32;5.82;;;;;;;0.90;100.00;94492.72;5086528;28;20100;-61
2022/12/10 07:20:34;;;;;;;6.00;5.40;;;;;;;0.91;100.00;94494.34;5083199;28;20135;-61
2022/12/10 07:22:59;;;;;;;5.28;4.88;;;;;;;0.88;100.00;94497.19;5081923;28;20449;-64
2022/12/10 07:25:25;;;;;;;5.78;5.38;;;;;;;1.02;100.00;94494.41;5083175;28;20028;-64
2022/12/10 07:27:50;;;;;;;6.22;5.70;;;;;;;0.94;100.00;94492.38;5078131;28;20093;-64
2022/12/10 07:30:15;;;;;;;5.68;5.18;;;;;;;1.00;100.00;94496.28;5085093;28;20028;-63
2022/12/10 07:32:41;;;;;;;5.30;4.90;;;;;;;0.88;100.00;94500.56;5089746;28;20119;-63
2022/12/10 07:35:06;;;;;;;4.93;4.63;;;;;;;0.84;100.00;94494.81;5073626;28;20036;-63
2022/12/10 07:37:33;;;;;;;5.80;5.40;;;;;;;0.74;100.00;94504.19;5076084;28;20032;-71
2022/12/10 07:39:58;;;;;;;5.00;4.70;;;;;;;0.67;100.00;94508.16;5084721;28;20541;-61
2022/12/10 07:42:23;;;;;;;4.88;4.57;;;;;;;0.71;100.00;94505.25;5088915;28;20040;-59
2022/12/10 07:44:49;;;;;;;4.85;4.47;;;;;;;0.65;100.00;94510.84;5078110;28;20478;-60
2022/12/10 07:47:14;;;;;;;5.78;5.28;;;;;;;0.85;100.00;94506.84;5088594;28;20070;-59
2022/12/10 07:49:39;;;;;;;5.43;5.03;;;;;;;0.70;100.00;94503.59;5088182;28;20032;-59
2022/12/10 07:52:05;;;;;;;5.53;5.13;;;;;;;0.72;100.00;94511.25;5081363;28;20020;-59
2022/12/10 07:54:30;;;;;;;5.40;5.00;;;;;;;0.68;100.00;94505.47;5086185;28;20070;-60
2022/12/10 07:56:55;;;;;;;6.00;5.45;;;;;;;0.72;100.00;94519.00;5082717;28;20366;-60
2022/12/10 07:59:21;;;;;;;5.90;5.45;;;;;;;0.76;100.00;94512.66;5093576;28;20111;-63
2022/12/10 08:01:47;;;;;;;7.07;6.55;;;;;;;0.93;100.00;94508.88;5088444;28;20028;-62
2022/12/10 08:04:13;;;;;;;4.68;4.38;;;;;;;0.99;100.00;94512.75;5084647;28;20029;-61
2022/12/10 08:06:38;;;;;;;5.30;4.90;;;;;;;0.90;100.00;94522.06;5086326;28;20129;-62
2022/12/10 08:09:03;;;;;;;6.40;5.90;;;;;;;0.87;100.00;94526.63;5086915;28;20513;-61
2022/12/10 08:11:29;;;;;;;6.90;6.30;;;;;;;0.95;100.00;94529.47;5064500;28;20103;-62
2022/12/10 08:13:55;;;;;;;6.70;6.15;;;;;;;1.03;100.00;94527.16;5088017;28;20042;-61
2022/12/10 08:16:24;;;;;;;8.32;7.53;;;;;;;0.97;100.00;94530.19;5087623;28;20070;-60
2022/12/10 08:18:50;;;;;;;5.70;5.30;;;;;;;0.91;100.00;94528.03;5088359;28;20023;-60
2022/12/10 08:21:18;;;;;;;7.32;6.72;;;;;;;1.00;100.00;94532.59;5089039;28;20020;-64
2022/12/10 08:23:44;;;;;;;10.70;9.70;;;;;;;0.98;100.00;94537.03;5079609;28;20090;-66
2022/12/10 08:26:13;;;;;;;6.22;5.75;;;;;;;1.06;100.00;94545.09;5083752;28;20616;-68
2022/12/10 08:28:38;;;;;;;7.82;7.22;;;;;;;1.14;100.00;94544.53;5076540;28;20024;-68
2022/12/10 08:31:06;;;;;;;7.60;6.90;;;;;;;1.00;100.00;94546.34;5092659;28;20171;-67
2022/12/10 08:33:36;;;;;;;5.50;5.10;;;;;;;1.00;100.00;94550.72;5075210;28;20074;-68
2022/12/10 08:36:02;;;;;;;7.28;6.68;;;;;;;1.01;100.00;94552.38;5082388;28;20031;-60
2022/12/10 08:38:29;;;;;;;14.60;12.38;;;;;;;0.72;100.00;94557.88;5084974;28;20052;-59
2022/12/10 08:40:54;;;;;;;11.75;10.55;;;;;;;0.85;100.00;94550.88;5079589;28;20497;-59
2022/12/10 08:43:19;;;;;;;6.22;5.78;;;;;;;0.78;100.00;94561.78;5072874;28;20090;-58
2022/12/10 08:45:45;;;;;;;7.13;6.53;;;;;;;0.73;100.00;94566.50;5077881;28;20029;-60
2022/12/10 08:48:10;;;;;;;5.80;5.30;;;;;;;0.87;100.00;94574.09;5076673;28;20032;-59
2022/12/10 08:50:37;;;;;;;6.50;6.07;;;;;;;0.66;100.00;94579.03;5075795;28;20020;-59
2022/12/10 08:53:02;;;;;;;6.38;5.88;;;;;;;0.59;100.00;94578.66;5078946;28;20020;-59
2022/12/10 08:55:28;;;;;;;6.63;6.03;;;;;;;0.59;100.00;94583.00;5085604;28;20030;-63
2022/12/10 08:57:53;;;;;;;7.40;6.70;;;;;;;0.67;100.00;94581.53;5079648;28;20419;-60
2022/12/10 09:00:18;;;;;;;6.18;5.68;;;;;;;0.91;100.00;94592.84;5084515;28;20023;-60
2022/12/10 09:02:44;;;;;;;8.68;7.78;;;;;;;0.78;100.00;94585.13;5103180;28;20034;-61
2022/12/10 09:05:10;;;;;;;8.70;7.90;;;;;;;0.91;100.00;94593.69;5085353;28;20489;-60
2022/12/10 09:07:35;;;;;;;8.18;7.35;;;;;;;0.98;100.00;94592.28;5085721;28;20031;-61
2022/12/10 09:10:01;;;;;;;11.35;9.38;;;;;;;1.00;100.00;94605.97;5083094;28;20038;-60
2022/12/10 09:12:26;;;;;;;10.60;9.60;;;;;;;0.87;100.00;94612.97;5081458;28;20466;-60
2022/12/10 09:14:52;;;;;;;9.90;9.05;;;;;;;0.84;100.00;94611.44;5084012;28;20027;-60
2022/12/10 09:17:17;;;;;;;10.63;9.63;;;;;;;0.78;100.00;94618.81;5081113;28;20048;-63
2022/12/10 09:19:42;;;;;;;9.30;8.40;;;;;;;0.87;100.00;94619.91;5083331;28;20030;-64
2022/12/10 09:22:08;;;;;;;8.15;7.35;;;;;;;0.96;100.00;94625.28;5081472;28;20031;-63
2022/12/10 09:24:34;;;;;;;6.57;6.07;;;;;;;0.89;100.00;94623.22;5078699;28;20036;-63
2022/12/10 09:27:00;;;;;;;5.75;5.35;;;;;;;0.97;100.00;94624.34;5078203;28;20024;-63
2022/12/10 09:29:26;;;;;;;5.65;5.22;;;;;;;0.92;100.00;94623.84;5083894;28;20034;-63
2022/12/10 09:31:52;;;;;;;6.15;5.65;;;;;;;0.79;100.00;94630.81;5081343;28;20020;-64
2022/12/10 09:34:18;;;;;;;6.78;6.18;;;;;;;0.76;100.00;94637.03;5079202;28;20558;-67
2022/12/10 09:36:43;;;;;;;9.27;8.35;;;;;;;0.71;100.00;94639.13;5080042;28;20056;-63
2022/12/10 09:39:08;;;;;;;11.13;8.18;;;;;;;0.87;100.00;94640.66;5084229;28;20051;-63
2022/12/10 09:42:03;;;;;;;8.13;7.43;;;;;;;0.87;100.00;94643.25;5084848;28;20028;-63
2022/12/10 09:44:28;;;;;;;7.80;7.15;;;;;;;0.80;100.00;94642.84;5081715;28;20029;-63
2022/12/10 09:46:57;;;;;;;11.98;10.50;;;;;;;0.69;100.00;94641.00;5079666;28;20097;-63
2022/12/10 09:49:44;;;;;;;9.25;8.43;;;;;;;0.68;100.00;94642.78;5081347;28;20085;-62
2022/12/10 09:52:16;;;;;;;11.43;10.23;;;;;;;0.87;100.00;94644.06;5081634;28;20024;-63
2022/12/10 09:54:42;;;;;;;12.10;9.27;;;;;;;0.79;100.00;94644.63;5078645;28;20584;-61
2022/12/10 09:57:15;;;;;;;9.35;8.45;;;;;;;0.67;100.00;94642.88;5080512;28;20032;-61
2022/12/10 09:59:46;;;;;;;6.40;5.90;;;;;;;0.61;100.00;94653.69;5086675;28;20401;-61
2022/12/10 10:02:23;;;;;;;7.13;6.63;;;;;;;0.57;100.00;94651.31;5081702;28;20055;-61
2022/12/10 10:04:50;;;;;;;5.57;5.18;;;;;;;0.70;100.00;94650.44;5086863;28;20029;-61
2022/12/10 10:07:21;;;;;;;6.10;5.70;;;;;;;0.75;100.00;94650.94;5086802;28;20031;-61
2022/12/10 10:09:46;;;;;;;6.30;5.80;;;;;;;0.78;100.00;94649.91;5090576;28;20103;-60
2022/12/10 10:12:15;;;;;;;7.30;6.60;;;;;;;0.90;100.00;94649.03;5085358;28;20107;-62
2022/12/10 10:14:43;;;;;;;7.68;7.07;;;;;;;0.78;100.00;94650.75;5080356;28;20230;-67
2022/12/10 10:17:35;;;;;;;5.38;4.97;;;;;;;0.65;100.00;94639.56;5092730;28;20781;-63
2022/12/10 10:20:01;;;;;;;6.43;5.82;;;;;;;0.68;100.00;94644.53;5088085;28;20024;-63
2022/12/10 10:22:26;;;;;;;5.20;4.80;;;;;;;0.74;100.00;94645.88;5087783;28;20378;-62
2022/12/10 10:24:51;;;;;;;5.43;5.10;;;;;;;0.65;100.00;94644.75;5083958;28;20047;-63
2022/12/10 10:27:20;;;;;;;5.03;4.63;;;;;;;0.63;100.00;94646.63;5087895;28;20648;-63
2022/12/10 10:29:48;;;;;;;4.80;4.50;;;;;;;0.62;100.00;94645.78;5083766;28;20016;-63
2022/12/10 10:32:24;;;;;;;7.95;7.35;;;;;;;0.76;100.00;94646.59;5083729;28;20024;-65
2022/12/10 10:34:56;;;;;;;9.60;8.90;;;;;;;0.95;100.00;94648.69;5092736;28;20024;-62
2022/12/10 10:37:28;;;;;;;6.90;6.32;;;;;;;1.08;100.00;94640.88;5085542;28;20043;-63
2022/12/10 10:39:55;;;;;;;8.32;7.63;;;;;;;0.99;100.00;94638.00;5088504;28;20572;-62
2022/12/10 10:42:40;;;;;;;6.70;6.20;;;;;;;0.95;100.00;94646.09;5090593;28;20029;-62
2022/12/10 10:45:31;;;;;;;6.70;6.18;;;;;;;0.99;100.00;94652.72;5089189;28;20024;-63
2022/12/10 10:48:08;;;;;;;5.22;4.93;;;;;;;0.83;100.00;94648.66;5091568;28;20042;-62
2022/12/10 10:51:22;;;;;;;6.30;5.90;;;;;;;0.75;100.00;94650.13;5093948;28;20094;-60
2022/12/10 10:53:51;;;;;;;4.82;4.47;;;;;;;0.90;100.00;94661.16;5075259;28;20040;-66
2022/12/10 10:56:22;;;;;;;5.53;5.13;;;;;;;0.82;100.00;94652.16;5089558;28;20024;-66
2022/12/10 10:58:55;;;;;;;5.70;5.40;;;;;;;0.82;100.00;94647.00;5090332;28;20015;-66
2022/12/10 11:01:23;;;;;;;7.57;7.05;;;;;;;0.71;100.00;94652.09;5091683;28;20549;-66
2022/12/10 11:03:59;;;;;;;6.57;5.93;;;;;;;0.88;100.00;94657.84;5095025;28;20028;-65
2022/12/10 11:06:25;;;;;;;6.88;6.30;;;;;;;0.94;100.00;94650.47;5086906;28;20020;-68
2022/12/10 11:08:56;;;;;;;7.10;6.53;;;;;;;0.79;100.00;94661.91;5092540;28;20035;-67
2022/12/10 11:11:31;;;;;;;6.13;5.63;;;;;;;0.78;100.00;94658.50;5091885;28;20089;-59
2022/12/10 11:14:24;;;;;;;6.20;5.80;;;;;;;0.68;100.00;94654.91;5072701;28;20047;-60
2022/12/10 11:16:50;;;;;;;5.50;5.20;;;;;;;0.62;100.00;94663.09;5087368;28;20413;-61
2022/12/10 11:19:23;;;;;;;5.60;5.20;;;;;;;0.48;100.00;94662.28;5086974;28;20188;-60
2022/12/10 11:21:49;;;;;;;5.25;4.80;;;;;;;0.53;100.00;94669.75;5080222;28;20047;-60
2022/12/10 11:24:18;;;;;;;8.55;7.75;;;;;;;0.63;100.00;94669.94;5081431;28;20028;-60
2022/12/10 11:27:02;;;;;;;9.50;8.55;;;;;;;0.68;100.00;94671.28;5092023;28;20031;-60
2022/12/10 11:29:51;;;;;;;7.80;7.10;;;;;;;0.64;100.00;94666.41;5091774;28;20059;-57
2022/12/10 11:32:48;;;;;;;7.50;6.90;;;;;;;0.59;100.00;94677.09;5091810;28;20502;-63
2022/12/10 11:35:18;;;;;;;6.07;5.57;;;;;;;0.53;100.00;94677.50;5060857;28;20047;-68
2022/12/10 11:38:09;;;;;;;6.50;6.00;;;;;;;0.56;100.00;94685.06;5089038;28;20066;-68
2022/12/10 11:40:54;;;;;;;7.95;7.25;;;;;;;0.53;100.00;94693.88;5081061;28;20032;-68
2022/12/10 11:43:22;;;;;;;7.25;6.75;;;;;;;0.48;100.00;94695.13;5082070;28;20518;-67
2022/12/10 11:45:54;;;;;;;7.18;6.68;;;;;;;0.57;100.00;94686.72;5081180;28;20020;-66